首页
METAR-TAF:

METAR-TAF

机场 :

Sharurah, 沙特阿拉伯

纬度: 17-28N, 经度: 047-07E, 海拔: 720米

当前天气观测

该预报发布于52分钟前的03:00 UTC
风速4节,风向东转东北
温度 31°C
湿度 15%
气压 1011 hPa
能见度10公里或以上
1500米以下无云,无积雨云

METAR: OESH 280300Z 06004KT CAVOK 31/01 Q1011 NOSIG

时间: 06:52 (03:52 UTC)

预报

该预报发布于4小时和52分钟前的23:00 UTC
预报有效从28日的 00点(UTC)到 29日的 06点(UTC)
风速9节,风向
能見度: 7000
成为
从 28日的 04点(UTC)到 28日的 06点(UTC)
风速15节,风向东北
短暂存在
从 28日的 04点(UTC)到 28日的 16点(UTC)
能見度: 3000
高吹尘
成为
从 28日的 18点(UTC)到 28日的 20点(UTC)
风速6节,风向东转东南

TAF: OESH 272300Z 2800/2906 09009KT 7000 NSC BECMG 2804/2806 04015KT TEMPO 2804/2816 3000 BLDU BECMG 2818/2820 11006KT

超过4000个机场的气象观测和天气预报(METAR&TAF报告)。

可查询的气象台以黄色和红色小点在地图上表示。

将鼠标移到小点上方,可查看气象台名称。

然后点击查看天气观测和预报。

如需切换地图:点击带黑十字的绿色按钮放大地图;点击带横线的绿色按钮缩小地图;或者点击绿色箭头查看邻近地区的地图。


METAR-TAF: